This is the latest recevied weather packets stored in our database for station/object K7VLL. If no packets are shown the sender has not sent any weather packets the latest 10 day(s).
| Time | Temp. | Humidity | Pressure | Rain* | Wind** | Luminosity | Snow |
|---|---|---|---|---|---|---|---|
| 1778093585 | 24.44° C | 24% | 1092.4 hPa | 0 mm | - | 707 W/m² | - |
| 1778091783 | 23.33° C | 25% | 1092.7 hPa | 0 mm | - | 682 W/m² | - |
| 1778089983 | 23.89° C | 27% | 1093.2 hPa | 0 mm | - | 645 W/m² | - |
| 1778088182 | 22.22° C | 30% | 1092.9 hPa | 0 mm | - | 598 W/m² | - |
| 1778086379 | 20.56° C | 33% | 1093.2 hPa | 0 mm | - | 539 W/m² | - |
| 1778084576 | 19.44° C | 36% | 1093.1 hPa | 0 mm | - | 379 W/m² | - |
| 1778082771 | 18.33° C | 41% | 1092.9 hPa | 0 mm | - | 57 W/m² | - |
| 1778080968 | 17.22° C | 45% | 1093 hPa | 0 mm | - | 35 W/m² | - |
| 1778079168 | 16.11° C | 50% | 1092.9 hPa | 0 mm | - | 41 W/m² | - |
| 1778077365 | 15.56° C | 52% | 1093.1 hPa | 0 mm | - | 33 W/m² | - |
| 1778075559 | 13.33° C | 62% | 1092.7 hPa | 0 mm | - | 61 W/m² | - |
| 1778073758 | 13.89° C | 62% | 1092.7 hPa | 0 mm | - | 36 W/m² | - |
| 1778071953 | 10.56° C | 73% | 1092.4 hPa | 0 mm | - | 11 W/m² | - |
| 1778070150 | 10° C | 73% | 1092.1 hPa | 0 mm | - | 0 W/m² | - |
| 1778068347 | 10.56° C | 71% | 1092 hPa | 0 mm | - | 0 W/m² | - |
| 1778066542 | 11.11° C | 69% | 1091.7 hPa | 0 mm | - | 0 W/m² | - |
| 1778064743 | 12.22° C | 63% | 1091.5 hPa | 0 mm | - | 0 W/m² | - |
| 1778062939 | 13.89° C | 56% | 1091.1 hPa | 0 mm | - | 0 W/m² | - |
| 1778061135 | 14.44° C | 54% | 1091.1 hPa | 0 mm | - | 0 W/m² | - |
| 1778059331 | 12.78° C | 58% | 1091 hPa | 0 mm | - | 0 W/m² | - |
| 1778057531 | 13.33° C | 61% | 1090.8 hPa | 0 mm | - | 0 W/m² | - |
| 1778055728 | 13.89° C | 59% | 1091 hPa | 0 mm | - | 0 W/m² | - |
| 1778053923 | 13.89° C | 48% | 1091.2 hPa | 0 mm | - | 0 W/m² | - |
| 1778052119 | 15° C | 46% | 1091.1 hPa | 0 mm | - | 0 W/m² | - |
| 1778050314 | 15.56° C | 40% | 1090.9 hPa | 0 mm | - | 0 W/m² | - |
* Rain latest hour (hover to see other rain measurements)
** Current wind speed in m/s (hover to see current wind gust speed)